Aérodrome :
LOGIN :

S'inscrire | Disclaimer

   EN    FR    IT 

 










Légende :    VFR   VFR Marginal   IFR   IFR Intensif   IFR Très Intensif
Visi : 
Plafond : 
>= 8 km
>= 3000ft
5 à 8 km
1000 à 3000 ft
1500m à 5 km
500 à 1000 ft
800 à 1500m
200 à 500 ft
< 800m
< 200 ft
Symboles :   Orages  Brouillard  Fortes neiges  Fortes précipitations  Vent > 20 kt
SIGMETs :   Divers  Orages  Givrage  Turbulence  Onde Orograph.  Cendres Volcan.







- Altitude de l'aérodrome : 424 ft
- Code IATA : QGY


LHPR - Györ Per

DERNIER METAR :
  • 230645Z 32006KT 290V350 CAVOK M05/M10 Q1042 RMK BLU

METARs EXPIRÉS :
  • 230615Z 33005KT 290V350 CAVOK M07/M11 Q1041 RMK BLU
  • 230545Z 33007KT CAVOK M06/M11 Q1041 RMK BLU
  • 230515Z 31007KT CAVOK M07/M12 Q1041 RMK BLU
  • 230445Z AUTO 32007KT CAVOK M07/M12 Q1041 RMK BLU
  • 230415Z AUTO 33006KT CAVOK M06/M11 Q1041 RMK BLU

TAF TAF LHPR
Valide du 23 à 06h jusqu'au 23 à 15h UTC


230515Z 2306/2315 34008KT CAVOK
Pas de NOTAMs connus pour ce terrain.
1 SIGMET publié pour la FIR Budapest (LHCC) :
 
Turbulence forte
LHCC SIGMET 02 VALID 230500/230730 LHBP
LHCC BUDAPEST FIR SEV TURB FCST SE OF LINE N4600 E01940 - N4700 E02150 FL220/320 MOV SE WKN=



MET'MAP, la Météo Aéronautique d'un coup d'oeil ! - Copyright ORBIFLY Décembre 2007 - Disclaimer

ORBIFLY MET'MAP TEAM :

Programmation & Développement : Alexandra Zaïnal
Conception & Développement : Baudouin d'Aumeries
Co-Programmation & Développement : Marc-Olivier Méhu
Soutien technique & logistique : Manuel Goepfert

Contact : metmap@orbifly.com




SOURCES & CREDITS :

   NOAA